createdAt,value
2022-11-23T00:01:39.414Z,39.47
2022-11-23T00:04:12.723Z,40.45
2022-11-23T00:06:48.249Z,63.25
2022-11-23T00:09:19.180Z,65.97
2022-11-23T00:11:49.059Z,78.20
2022-11-23T00:14:18.882Z,70.82
2022-11-23T00:16:48.903Z,61.55
2022-11-23T00:19:18.808Z,68.78
2022-11-23T00:21:48.700Z,65.78
2022-11-23T00:24:18.639Z,54.60
2022-11-23T00:26:48.617Z,55.08
2022-11-23T00:29:18.488Z,52.80
2022-11-23T00:31:49.272Z,52.70
2022-11-23T00:34:19.410Z,54.60
2022-11-23T00:36:49.242Z,54.25
2022-11-23T00:39:19.292Z,51.30
2022-11-23T00:41:49.086Z,48.70
2022-11-23T00:44:19.199Z,64.30
2022-11-23T00:46:49.138Z,58.78
2022-11-23T00:49:19.215Z,59.33
2022-11-23T00:51:49.265Z,55.45
2022-11-23T00:54:19.291Z,55.22
2022-11-23T00:56:49.254Z,49.90
2022-11-23T00:59:19.245Z,50.83
2022-11-23T01:01:51.298Z,47.55
2022-11-23T01:04:21.427Z,42.17
2022-11-23T01:06:51.332Z,43.90
2022-11-23T01:09:26.626Z,43.63
2022-11-23T01:11:56.862Z,43.47
2022-11-23T01:14:27.244Z,45.20
2022-11-23T01:16:57.054Z,40.42
2022-11-23T01:19:27.104Z,43.23
2022-11-23T01:21:56.963Z,40.08
2022-11-23T01:24:26.847Z,43.65
2022-11-23T01:26:57.829Z,44.95
2022-11-23T01:29:27.959Z,45.45
2022-11-23T01:31:57.964Z,44.78
2022-11-23T01:34:28.405Z,40.65
2022-11-23T01:36:58.414Z,39.72
2022-11-23T01:39:28.536Z,39.97
2022-11-23T01:41:58.892Z,40.13
2022-11-23T01:44:32.834Z,38.00
2022-11-23T01:47:07.358Z,40.13
2022-11-23T01:49:44.311Z,37.67
2022-11-23T01:52:18.692Z,44.20
2022-11-23T01:54:52.315Z,42.45
2022-11-23T01:57:28.893Z,42.10
2022-11-23T01:59:59.618Z,39.83
2022-11-23T02:05:02.797Z,48.53
2022-11-23T02:07:34.471Z,51.90
2022-11-23T02:10:04.635Z,52.40
2022-11-23T02:12:34.467Z,50.15
2022-11-23T02:15:04.453Z,54.78
2022-11-23T02:17:36.646Z,49.63
2022-11-23T02:20:22.209Z,50.92
2022-11-23T02:23:01.412Z,51.65
2022-11-23T02:26:00.745Z,45.95
2022-11-23T02:28:38.631Z,47.13
2022-11-23T02:31:08.538Z,47.60
2022-11-23T02:33:41.719Z,49.75
2022-11-23T02:36:38.551Z,51.47
2022-11-23T02:39:14.122Z,54.22
2022-11-23T02:41:48.018Z,52.83
2022-11-23T02:44:55.707Z,52.78
2022-11-23T02:47:25.792Z,54.35
2022-11-23T02:49:56.203Z,54.65
2022-11-23T02:52:26.695Z,55.08
2022-11-23T02:54:56.770Z,52.30
2022-11-23T02:57:26.804Z,57.15
2022-11-23T02:59:56.636Z,52.63
2022-11-23T03:02:26.429Z,55.53
2022-11-23T03:04:57.131Z,56.03
2022-11-23T03:07:26.965Z,54.92
2022-11-23T03:09:56.811Z,59.42
2022-11-23T03:12:26.891Z,57.67
2022-11-23T03:14:56.755Z,62.80
2022-11-23T03:17:26.577Z,59.70
2022-11-23T03:19:56.784Z,58.85
2022-11-23T03:22:26.893Z,60.97
2022-11-23T03:24:56.836Z,61.63
2022-11-23T03:27:26.912Z,60.15
2022-11-23T03:29:56.733Z,61.33
2022-11-23T03:32:26.704Z,69.38
2022-11-23T03:35:00.152Z,67.18
2022-11-23T03:37:31.147Z,66.35
2022-11-23T03:40:01.501Z,71.63
2022-11-23T03:42:31.464Z,65.40
2022-11-23T03:45:01.313Z,69.50
2022-11-23T03:47:31.089Z,68.55
2022-11-23T03:50:01.912Z,70.78
2022-11-23T03:52:32.579Z,60.20
2022-11-23T03:55:04.693Z,64.30
2022-11-23T03:57:34.746Z,62.05
2022-11-23T04:00:06.480Z,63.15
2022-11-23T04:02:36.553Z,64.30
2022-11-23T04:05:06.665Z,64.30
2022-11-23T04:07:36.530Z,64.45
2022-11-23T04:10:06.959Z,63.55
2022-11-23T04:15:06.670Z,63.20
2022-11-23T04:20:08.137Z,63.88
2022-11-23T04:22:38.086Z,64.53
2022-11-23T04:25:08.511Z,65.35
2022-11-23T04:30:08.520Z,65.60
2022-11-23T04:32:38.576Z,67.35
2022-11-23T04:35:08.862Z,67.55
2022-11-23T04:37:38.719Z,78.40
2022-11-23T04:40:09.671Z,71.38
2022-11-23T04:42:39.530Z,77.70
2022-11-23T04:45:10.034Z,80.90
2022-11-23T04:50:09.429Z,77.18
2022-11-23T04:52:39.409Z,83.38
2022-11-23T04:55:09.899Z,80.65
2022-11-23T04:57:39.935Z,84.20
2022-11-23T05:00:10.797Z,87.03
2022-11-23T05:02:40.899Z,84.38
2022-11-23T05:05:11.593Z,80.97
2022-11-23T05:07:42.135Z,82.63
2022-11-23T05:10:13.176Z,81.47
2022-11-23T05:12:43.231Z,82.03
2022-11-23T05:15:17.700Z,80.55
2022-11-23T05:17:47.613Z,80.70
2022-11-23T05:20:17.878Z,84.68
2022-11-23T05:22:47.836Z,86.32
2022-11-23T05:25:17.853Z,85.10
2022-11-23T05:27:48.057Z,84.13
2022-11-23T05:30:18.179Z,83.03
2022-11-23T05:32:48.284Z,80.13
2022-11-23T05:35:18.511Z,77.90
2022-11-23T05:37:48.710Z,82.15
2022-11-23T05:40:18.633Z,82.88
2022-11-23T05:42:48.852Z,85.00
2022-11-23T05:45:18.797Z,79.68
2022-11-23T05:47:58.043Z,84.00
2022-11-23T05:50:30.171Z,79.00
2022-11-23T05:53:01.299Z,85.22
2022-11-23T05:55:31.261Z,83.28
2022-11-23T05:58:01.236Z,79.45
2022-11-23T06:00:31.275Z,79.43
2022-11-23T06:03:04.743Z,69.43
2022-11-23T06:05:35.552Z,67.60
2022-11-23T06:08:05.339Z,62.78
2022-11-23T06:10:35.365Z,56.22
2022-11-23T06:13:06.939Z,59.05
2022-11-23T06:15:36.941Z,53.35
2022-11-23T06:18:07.127Z,47.38
2022-11-23T06:23:10.448Z,48.08
2022-11-23T06:25:40.879Z,44.17
2022-11-23T06:28:11.145Z,42.97
2022-11-23T06:33:10.978Z,42.58
2022-11-23T06:35:41.010Z,39.72
2022-11-23T06:38:10.973Z,43.70
2022-11-23T06:40:40.966Z,39.42
2022-11-23T06:43:11.062Z,38.05
2022-11-23T06:45:40.969Z,36.97
2022-11-23T06:48:10.912Z,38.75
2022-11-23T06:50:41.581Z,38.78
2022-11-23T06:53:14.494Z,36.55
2022-11-23T06:55:45.402Z,36.80
2022-11-23T06:58:15.321Z,35.55
2022-11-23T07:00:45.211Z,33.92
2022-11-23T07:03:23.570Z,34.28
2022-11-23T07:05:53.559Z,33.00
2022-11-23T07:08:23.720Z,31.30
2022-11-23T07:13:24.062Z,28.05
2022-11-23T07:15:54.964Z,27.08
2022-11-23T07:18:26.152Z,25.40
2022-11-23T07:20:58.041Z,26.52
2022-11-23T07:23:29.029Z,27.35
2022-11-23T07:25:59.877Z,27.83
2022-11-23T07:28:30.186Z,27.42
2022-11-23T07:31:00.588Z,24.55
2022-11-23T07:33:31.021Z,24.13
2022-11-23T07:36:05.032Z,26.50
2022-11-23T07:41:24.787Z,25.75
2022-11-23T07:43:55.316Z,24.10
2022-11-23T07:46:26.475Z,25.02
2022-11-23T07:49:01.386Z,24.50
2022-11-23T07:51:32.793Z,28.25
2022-11-23T07:54:03.468Z,27.88
2022-11-23T07:56:34.028Z,29.67
2022-11-23T07:59:04.401Z,27.25
2022-11-23T08:01:34.876Z,27.20
2022-11-23T08:04:05.302Z,25.40
2022-11-23T08:06:35.837Z,24.77
2022-11-23T08:09:06.220Z,25.85
2022-11-23T08:11:36.701Z,28.88
2022-11-23T08:14:07.198Z,36.53
2022-11-23T08:16:37.899Z,40.45
2022-11-23T08:19:08.371Z,39.83
2022-11-23T08:21:38.812Z,38.33
2022-11-23T08:24:09.677Z,36.08
2022-11-23T08:26:40.447Z,34.53
2022-11-23T08:29:11.055Z,36.00
2022-11-23T08:31:41.448Z,34.55
2022-11-23T08:34:12.021Z,33.97
2022-11-23T08:36:42.473Z,28.95
2022-11-23T08:39:13.390Z,29.45
2022-11-23T08:41:43.916Z,25.88
2022-11-23T08:44:14.222Z,29.95
2022-11-23T08:46:44.231Z,27.85
2022-11-23T08:49:14.276Z,29.23
2022-11-23T08:51:49.919Z,24.05
2022-11-23T08:54:20.283Z,26.20
2022-11-23T08:56:51.042Z,25.55
2022-11-23T08:59:21.967Z,27.80
2022-11-23T09:01:52.458Z,25.15
2022-11-23T09:04:22.391Z,24.73
2022-11-23T09:06:52.478Z,24.38
2022-11-23T09:09:22.770Z,24.50
2022-11-23T09:14:23.573Z,24.63
2022-11-23T09:16:53.765Z,24.67
2022-11-23T09:21:54.559Z,23.58
2022-11-23T09:26:54.648Z,21.13
2022-11-23T09:29:24.880Z,22.50
2022-11-23T09:34:24.771Z,21.85
2022-11-23T09:36:55.120Z,22.27
2022-11-23T09:39:25.212Z,21.13
2022-11-23T09:42:31.536Z,22.17
2022-11-23T09:45:34.558Z,20.75
2022-11-23T09:48:41.934Z,23.95
2022-11-23T09:51:25.447Z,22.73
2022-11-23T09:54:02.897Z,23.67
2022-11-23T09:56:39.624Z,24.15
2022-11-23T09:59:25.400Z,22.17
2022-11-23T10:01:55.577Z,24.88
2022-11-23T10:07:21.634Z,25.15
2022-11-23T10:10:16.023Z,23.65
2022-11-23T10:13:15.909Z,24.95
2022-11-23T10:16:05.319Z,24.65
2022-11-23T10:19:14.941Z,27.97
2022-11-23T10:22:08.243Z,29.55
2022-11-23T10:24:46.467Z,28.85
2022-11-23T10:27:20.554Z,28.70
2022-11-23T10:29:51.917Z,31.00
2022-11-23T10:32:48.043Z,30.88
2022-11-23T10:35:31.749Z,30.92
2022-11-23T10:38:19.341Z,30.67
2022-11-23T10:41:04.136Z,32.72
2022-11-23T10:44:08.175Z,35.08
2022-11-23T10:46:43.312Z,31.77
2022-11-23T10:49:32.630Z,34.00
2022-11-23T10:52:15.763Z,35.05
2022-11-23T10:54:55.925Z,35.25
2022-11-23T10:57:44.698Z,37.83
2022-11-23T11:00:22.813Z,38.28
2022-11-23T11:02:58.968Z,38.28
2022-11-23T11:08:41.282Z,41.97
2022-11-23T11:11:23.169Z,42.90
2022-11-23T11:13:53.446Z,39.90
2022-11-23T11:19:37.445Z,42.35
2022-11-23T11:22:35.100Z,41.40
2022-11-23T11:25:08.962Z,45.40
2022-11-23T11:27:38.962Z,48.05
2022-11-23T11:30:22.599Z,48.58
2022-11-23T11:33:10.565Z,44.63
2022-11-23T11:35:45.686Z,46.58
2022-11-23T11:38:25.750Z,46.42
2022-11-23T11:40:56.915Z,48.67
2022-11-23T11:43:49.647Z,53.35
2022-11-23T11:46:30.020Z,48.70
2022-11-23T11:49:14.735Z,50.58
2022-11-23T11:51:50.137Z,53.90
2022-11-23T11:54:40.740Z,51.28
2022-11-23T11:57:23.064Z,54.03
2022-11-23T12:00:01.895Z,53.58
2022-11-23T12:02:38.518Z,56.03
2022-11-23T12:05:26.235Z,53.70
2022-11-23T12:08:30.814Z,56.15
2022-11-23T12:11:03.810Z,56.70
2022-11-23T12:13:38.245Z,57.75
2022-11-23T12:16:30.983Z,58.78
2022-11-23T12:19:21.409Z,59.80
2022-11-23T12:25:12.588Z,59.97
2022-11-23T12:28:01.413Z,63.58
2022-11-23T12:30:43.522Z,64.20
2022-11-23T12:33:35.234Z,63.38
2022-11-23T12:36:31.914Z,66.20
2022-11-23T12:39:24.784Z,70.28
2022-11-23T12:42:09.827Z,76.15
2022-11-23T12:45:11.552Z,76.82
2022-11-23T12:48:14.391Z,69.35
2022-11-23T12:51:12.150Z,68.43
2022-11-23T12:54:11.853Z,60.00
2022-11-23T12:57:13.346Z,56.67
2022-11-23T12:59:51.702Z,55.67
2022-11-23T13:02:53.663Z,56.75
2022-11-23T13:05:50.258Z,58.20
2022-11-23T13:08:47.539Z,51.75
2022-11-23T13:11:56.183Z,52.00
2022-11-23T13:14:43.227Z,49.60
2022-11-23T13:17:45.160Z,51.35
2022-11-23T13:20:38.834Z,49.03
2022-11-23T13:23:08.930Z,52.10
2022-11-23T13:25:39.005Z,55.58
2022-11-23T13:28:31.799Z,59.47
2022-11-23T13:31:21.837Z,59.42
2022-11-23T13:33:58.802Z,56.88
2022-11-23T13:40:06.565Z,52.38
2022-11-23T13:42:37.109Z,50.78
2022-11-23T13:51:08.964Z,53.53
2022-11-23T13:53:44.760Z,50.55
2022-11-23T13:56:36.469Z,46.00
2022-11-23T13:59:31.281Z,47.75
2022-11-23T14:02:24.882Z,44.08
2022-11-23T14:04:54.872Z,47.72
2022-11-23T14:07:31.605Z,51.17
2022-11-23T14:10:10.215Z,48.45
2022-11-23T14:13:04.514Z,46.78
2022-11-23T14:15:39.217Z,45.28
2022-11-23T14:18:38.394Z,42.70
2022-11-23T14:21:20.589Z,40.97
2022-11-23T14:24:20.302Z,41.55
2022-11-23T14:27:39.009Z,42.97
2022-11-23T14:30:19.672Z,39.40
2022-11-23T14:33:19.308Z,41.45
2022-11-23T14:36:09.687Z,41.75
2022-11-23T14:38:59.598Z,47.55
2022-11-23T14:41:33.235Z,45.63
2022-11-23T14:44:04.879Z,51.67
2022-11-23T14:46:34.881Z,45.10
2022-11-23T14:49:09.668Z,46.63
2022-11-23T14:51:46.709Z,45.20
2022-11-23T14:54:19.139Z,47.80
2022-11-23T14:56:51.545Z,49.85
2022-11-23T14:59:30.207Z,51.22
2022-11-23T15:02:05.000Z,48.97
2022-11-23T15:04:40.784Z,50.10
2022-11-23T15:07:25.684Z,47.30
2022-11-23T15:10:18.836Z,48.58
2022-11-23T15:12:51.399Z,45.13
2022-11-23T15:15:24.926Z,48.47
2022-11-23T15:17:58.758Z,45.72
2022-11-23T15:20:35.577Z,47.33
2022-11-23T15:23:06.240Z,46.58
2022-11-23T15:25:36.348Z,61.83
2022-11-23T15:28:08.147Z,75.07
2022-11-23T15:30:39.088Z,52.50
2022-11-23T15:33:14.184Z,43.33
2022-11-23T15:35:44.297Z,43.65
2022-11-23T15:38:22.018Z,43.83
2022-11-23T15:40:53.903Z,43.22
2022-11-23T15:43:24.021Z,42.53
2022-11-23T15:46:14.596Z,42.72
2022-11-23T15:48:44.980Z,39.85
2022-11-23T15:51:30.593Z,42.33
2022-11-23T15:54:02.775Z,38.13
2022-11-23T15:56:38.069Z,41.85
2022-11-23T15:59:42.260Z,39.72
2022-11-23T16:02:24.187Z,44.22
2022-11-23T16:05:21.760Z,45.58
2022-11-23T16:08:02.330Z,43.92
2022-11-23T16:10:34.916Z,42.33
2022-11-23T16:13:07.926Z,41.15
2022-11-23T16:15:46.075Z,40.47
2022-11-23T16:18:36.001Z,37.28
2022-11-23T16:21:07.273Z,37.35
2022-11-23T16:23:58.399Z,36.25
2022-11-23T16:26:36.659Z,37.60
2022-11-23T16:29:07.573Z,35.17
2022-11-23T16:31:42.523Z,38.95
2022-11-23T16:34:18.944Z,38.92
2022-11-23T16:36:49.393Z,38.35
2022-11-23T16:39:19.438Z,40.42
2022-11-23T16:41:49.327Z,40.30
2022-11-23T16:44:19.988Z,37.97
2022-11-23T16:46:50.590Z,38.88
2022-11-23T16:51:57.344Z,41.63
2022-11-23T16:54:27.716Z,40.00
2022-11-23T16:56:58.224Z,44.95
2022-11-23T16:59:28.605Z,44.20
2022-11-23T17:01:58.913Z,44.22
2022-11-23T17:04:31.997Z,44.72
2022-11-23T17:07:02.300Z,45.42
2022-11-23T17:09:33.384Z,45.67
2022-11-23T17:12:04.118Z,49.83
2022-11-23T17:17:06.060Z,49.30
2022-11-23T17:19:36.147Z,49.80
2022-11-23T17:22:06.665Z,48.03
2022-11-23T17:24:36.584Z,44.95
2022-11-23T17:27:06.523Z,43.33
2022-11-23T17:29:41.501Z,49.83
2022-11-23T17:32:14.775Z,41.15
2022-11-23T17:34:44.691Z,42.08
2022-11-23T17:37:21.907Z,40.50
2022-11-23T17:39:53.162Z,39.00
2022-11-23T17:42:25.568Z,41.70
2022-11-23T17:44:55.899Z,39.92
2022-11-23T17:47:31.866Z,38.97
2022-11-23T17:50:02.035Z,42.25
2022-11-23T17:52:31.961Z,36.47
2022-11-23T17:55:03.056Z,39.63
2022-11-23T17:57:33.535Z,40.03
2022-11-23T18:00:05.174Z,35.70
2022-11-23T18:02:35.025Z,36.75
2022-11-23T18:05:04.917Z,35.65
2022-11-23T18:07:34.791Z,35.60
2022-11-23T18:10:04.894Z,39.63
2022-11-23T18:12:34.774Z,34.80
2022-11-23T18:15:04.693Z,36.97
2022-11-23T18:17:34.505Z,40.67
2022-11-23T18:20:05.545Z,37.33
2022-11-23T18:22:35.730Z,35.45
2022-11-23T18:25:05.806Z,39.95
2022-11-23T18:27:35.853Z,35.88
2022-11-23T18:30:07.122Z,38.30
2022-11-23T18:32:37.032Z,37.22
2022-11-23T18:35:07.130Z,37.03
2022-11-23T18:37:37.144Z,37.85
2022-11-23T18:40:07.658Z,39.80
2022-11-23T18:45:14.011Z,33.92
2022-11-23T18:47:43.815Z,37.42
2022-11-23T18:50:13.704Z,36.75
2022-11-23T18:52:43.571Z,33.85
2022-11-23T18:55:13.458Z,34.25
2022-11-23T18:57:43.586Z,33.80
2022-11-23T19:00:14.551Z,34.67
2022-11-23T19:02:44.631Z,36.45
2022-11-23T19:05:14.365Z,36.47
2022-11-23T19:07:44.296Z,39.00
2022-11-23T19:10:14.177Z,32.58
2022-11-23T19:12:45.230Z,32.90
2022-11-23T19:15:15.388Z,33.20
2022-11-23T19:17:45.317Z,32.03
2022-11-23T19:20:15.362Z,33.97
2022-11-23T19:22:45.418Z,33.10
2022-11-23T19:25:15.732Z,34.15
2022-11-23T19:27:46.489Z,33.03
2022-11-23T19:30:17.006Z,31.55
2022-11-23T19:32:46.981Z,34.42
2022-11-23T19:35:16.924Z,30.30
2022-11-23T19:37:47.569Z,32.42
2022-11-23T19:40:17.532Z,35.03
2022-11-23T19:42:47.342Z,32.47
2022-11-23T19:45:17.099Z,35.38
2022-11-23T19:47:47.056Z,36.60
2022-11-23T19:50:17.028Z,36.30
2022-11-23T19:53:11.136Z,36.15
2022-11-23T19:55:36.686Z,37.42
2022-11-23T19:58:06.457Z,34.97
2022-11-23T20:00:36.260Z,37.42
2022-11-23T20:03:06.259Z,37.40
2022-11-23T20:05:36.098Z,36.80
2022-11-23T20:08:06.102Z,36.58
2022-11-23T20:10:35.998Z,40.05
2022-11-23T20:13:05.833Z,37.08
2022-11-23T20:15:35.644Z,36.35
2022-11-23T20:18:05.488Z,36.95
2022-11-23T20:20:35.331Z,34.88
2022-11-23T20:23:05.389Z,36.13
2022-11-23T20:25:38.377Z,33.00
2022-11-23T20:28:08.983Z,32.78
2022-11-23T20:33:08.467Z,32.58
2022-11-23T20:35:38.849Z,34.95
2022-11-23T20:38:09.150Z,34.97
2022-11-23T20:40:39.086Z,35.58
2022-11-23T20:43:09.020Z,32.25
2022-11-23T20:45:38.855Z,32.63
2022-11-23T20:48:09.503Z,33.88
2022-11-23T20:50:39.426Z,33.63
2022-11-23T20:53:09.275Z,35.47
2022-11-23T20:55:40.435Z,35.20
2022-11-23T20:58:10.684Z,32.60
2022-11-23T21:00:41.420Z,33.08
2022-11-23T21:03:12.109Z,31.95
2022-11-23T21:05:42.448Z,33.97
2022-11-23T21:08:24.257Z,34.97
2022-11-23T21:11:12.401Z,32.92
2022-11-23T21:13:52.494Z,32.65
2022-11-23T21:16:23.085Z,32.55
2022-11-23T21:18:54.414Z,31.65
2022-11-23T21:21:25.385Z,30.15
2022-11-23T21:23:55.366Z,31.75
2022-11-23T21:26:25.279Z,31.23
2022-11-23T21:28:55.843Z,30.35
2022-11-23T21:33:55.512Z,30.90
2022-11-23T21:36:25.650Z,31.05
2022-11-23T21:38:55.467Z,30.15
2022-11-23T21:41:25.630Z,32.13
2022-11-23T21:43:57.390Z,33.30
2022-11-23T21:46:27.554Z,30.30
2022-11-23T21:48:59.505Z,31.80
2022-11-23T21:51:31.630Z,31.33
2022-11-23T21:54:04.467Z,32.90
2022-11-23T21:56:34.364Z,34.40
2022-11-23T21:59:04.432Z,34.45
2022-11-23T22:01:36.619Z,33.03
2022-11-23T22:04:10.480Z,32.65
2022-11-23T22:06:42.108Z,32.95
2022-11-23T22:09:13.064Z,33.63
2022-11-23T22:11:44.784Z,33.47
2022-11-23T22:14:16.561Z,34.50
2022-11-23T22:16:51.188Z,30.90
2022-11-23T22:19:21.186Z,33.00
2022-11-23T22:21:51.043Z,32.72
2022-11-23T22:24:24.872Z,33.00
2022-11-23T22:26:54.787Z,30.20
2022-11-23T22:29:24.647Z,33.28
2022-11-23T22:31:54.687Z,31.77
2022-11-23T22:34:24.570Z,32.00
2022-11-23T22:36:54.577Z,30.17
2022-11-23T22:39:24.428Z,32.33
2022-11-23T22:41:54.314Z,31.77
2022-11-23T22:44:24.214Z,33.22
2022-11-23T22:46:54.177Z,29.77
2022-11-23T22:49:24.076Z,32.92
2022-11-23T22:51:53.937Z,31.23
2022-11-23T22:54:23.773Z,32.53
2022-11-23T22:56:53.501Z,34.33
2022-11-23T22:59:23.330Z,33.35
2022-11-23T23:01:53.264Z,35.55
2022-11-23T23:04:23.152Z,33.33
2022-11-23T23:06:53.040Z,36.22
2022-11-23T23:09:23.055Z,34.65
2022-11-23T23:11:52.902Z,37.50
2022-11-23T23:14:22.791Z,36.75
2022-11-23T23:16:53.187Z,35.85
2022-11-23T23:19:23.129Z,34.83
2022-11-23T23:21:52.929Z,37.35
2022-11-23T23:24:23.927Z,36.05
2022-11-23T23:26:53.787Z,36.00
2022-11-23T23:29:23.653Z,36.75
2022-11-23T23:31:53.834Z,39.13
2022-11-23T23:34:23.747Z,34.85
2022-11-23T23:36:53.651Z,36.42
2022-11-23T23:39:23.768Z,38.15
2022-11-23T23:41:53.653Z,36.28
2022-11-23T23:44:23.466Z,38.85
2022-11-23T23:46:53.338Z,41.13
2022-11-23T23:49:23.325Z,37.60
2022-11-23T23:51:53.278Z,43.28
2022-11-23T23:54:23.183Z,41.10
2022-11-23T23:56:52.966Z,40.17
2022-11-23T23:59:25.888Z,40.63
